Portada
METAR-TAF:

METAR-TAF

Aeroports :

Harbin, Xina

latitud: 45-45N, longitud: 126-46E, altitud: 143 m

Observació

L'informe es va fer fa 42 minuts, a les 15:00 UTC
Vent 8 kt del Oest/Sud-Oest
Temperatura 10°C
Humitat 93%
Pressió 1005 hPa
Visibilitat 10 km o més
Escasses núvols a una alçada de 3300 ft

METAR: ZYHB 251500Z 25004MPS 9999 FEW033 10/09 Q1005 NOSIG

Hora: 23:42 (15:42 UTC)

Pronòstic

L'informe es va fer fa 6 hores i 34 minuts, a les 09:08 UTC
Pronòstic vàlid del 25 a les 12 UTC al 26 a les 12 UTC
Vent 8 kt del Oest amb ràfegues de 19 kt
Visibilitat: 6000 m
Núvols disperses a una alçada de 3000 ft

TAF: ZYHB 250908Z 2512/2612 28004G10MPS 6000 SCT030 TX17/2606Z TN09/2521Z

Observacions i pronòstics meteorològics de més de 4000 aeroports (METAR i TAF).

Les estacions disponibles són els punts grocs i vermells al mapa.

Posi el ratolí al punt desitjat per veure el nom de l'estació.

Feu clic per veure les observacions i els pronòstics meteorològics.

Per canviar el mapa: feu clic els botons verds amb una creu de color negre per apropar; al botó verd amb un guió per allunyar la imatge; o en les fletxes verdes per a mapes adjacents.


METAR-TAF: